Terminal Aerodrome Forecast
Issued by NWS

Home | Current Version | Previous Version | Text Only | Print | Product List | Glossary On
Versions: 1 2 3 4 5 6 7 8 9 10 11 12 13
000
FTUS44 KEPZ 220523
TAFTCS
TAF
KTCS 220523Z 2206/2306 26008KT P6SM SCT050 BKN100 BKN250
     FM221800 19010KT P6SM VCTS SCT050CB BKN100 BKN200
     FM230000 28010KT P6SM VCTS SCT050CB BKN100 BKN200=

USA.gov is the U.S. government's official web portal to all federal, state and local government web resources and services.